Time;durP1;ratioP1;P1;durP2;ratioP2;P2;SDS_P1;SDS_P2;PMS_P1;PMS_P2;Temp;Humidity;BMP_temperature;BMP_pressure;BME280_temperature;BME280_humidity;BME280_pressure;Samples;Min_cycle;Max_cycle;Signal;HPM_P1;HPM_P2
2022/05/30 00:00:38;;;;;;;4.80;2.30;;;;;;;-141.50;100.00;63355.56;5073844;28;20562;-82
2022/05/30 00:03:05;;;;;;;6.18;2.50;;;;;;;-141.50;100.00;63355.56;5093719;28;20044;-82
2022/05/30 00:05:34;;;;;;;5.65;2.45;;;;;;;-141.50;100.00;63355.56;5077483;28;20062;-81
2022/05/30 00:08:00;;;;;;;4.95;2.47;;;;;;;-141.50;100.00;63355.56;5099835;28;20070;-82
2022/05/30 00:10:28;;;;;;;3.50;2.20;;;;;;;-141.50;100.00;63355.56;5107692;28;20040;-81
2022/05/30 00:12:56;;;;;;;4.78;2.20;;;;;;;-141.50;100.00;63355.56;5092748;28;20042;-84
2022/05/30 00:15:23;;;;;;;5.55;2.30;;;;;;;-141.50;100.00;63355.56;5106045;28;20048;-82
2022/05/30 00:17:54;;;;;;;3.65;2.22;;;;;;;-141.50;100.00;63355.56;5087600;28;20060;-82
2022/05/30 00:20:21;;;;;;;4.57;2.30;;;;;;;-141.50;100.00;63355.56;5087914;28;20044;-85
2022/05/30 00:22:48;;;;;;;3.70;2.33;;;;;;;-141.50;100.00;63355.56;5084910;28;20472;-82
2022/05/30 00:25:14;;;;;;;8.25;2.47;;;;;;;-141.50;100.00;63355.56;5108736;28;20044;-82
2022/05/30 00:27:43;;;;;;;6.20;2.45;;;;;;;-141.50;100.00;63355.56;5105294;28;20059;-82
2022/05/30 00:30:11;;;;;;;4.45;2.05;;;;;;;-141.50;100.00;63355.56;5103089;28;20070;-82
2022/05/30 00:32:39;;;;;;;3.70;2.42;;;;;;;-141.50;100.00;63355.56;5080320;28;20082;-80
2022/05/30 00:35:07;;;;;;;3.28;2.20;;;;;;;-141.50;100.00;63355.56;5079895;28;20055;-83
2022/05/30 00:37:33;;;;;;;5.05;2.05;;;;;;;-141.50;100.00;63355.56;5107328;28;20035;-81
2022/05/30 00:40:00;;;;;;;4.72;2.35;;;;;;;-141.50;100.00;63355.56;5109041;28;20051;-83
2022/05/30 00:42:27;;;;;;;4.30;2.70;;;;;;;-141.50;100.00;63355.56;5081165;28;20074;-83
2022/05/30 00:44:54;;;;;;;4.20;2.22;;;;;;;-141.50;100.00;63355.56;5083445;28;20044;-84
2022/05/30 00:47:21;;;;;;;3.58;1.92;;;;;;;-141.50;100.00;63355.56;5099450;28;20044;-82
2022/05/30 00:49:49;;;;;;;4.65;2.22;;;;;;;-141.50;100.00;63355.56;5111650;28;20047;-81
2022/05/30 00:52:21;;;;;;;5.53;2.50;;;;;;;-141.50;100.00;63355.56;5097214;28;20133;-81
2022/05/30 00:54:52;;;;;;;6.35;2.50;;;;;;;-141.50;100.00;63355.56;5096759;28;20028;-81
2022/05/30 00:57:22;;;;;;;7.43;2.50;;;;;;;-141.50;100.00;63355.56;5090326;28;20044;-83
2022/05/30 00:59:57;;;;;;;5.40;2.22;;;;;;;-141.50;100.00;63355.56;5100336;28;20047;-83
2022/05/30 01:02:28;;;;;;;6.90;2.67;;;;;;;-141.50;100.00;63355.56;5100548;28;20082;-83
2022/05/30 01:07:44;;;;;;;6.53;3.20;;;;;;;-141.50;100.00;63355.56;5100049;28;20048;-83
2022/05/30 01:10:14;;;;;;;5.75;2.70;;;;;;;-141.50;100.00;63355.56;5105169;28;20043;-82
2022/05/30 01:12:52;;;;;;;7.97;3.10;;;;;;;-141.50;100.00;63355.56;5103109;28;20059;-85
2022/05/30 01:15:22;;;;;;;8.35;2.80;;;;;;;-141.50;100.00;63355.56;5099603;28;20048;-84
2022/05/30 01:18:03;;;;;;;6.45;3.00;;;;;;;-141.50;100.00;63355.56;5101090;28;20123;-84
2022/05/30 01:20:57;;;;;;;4.13;3.13;;;;;;;-141.50;100.00;63355.56;5098878;28;20043;-84
2022/05/30 01:23:31;;;;;;;5.20;3.60;;;;;;;-141.50;100.00;63355.56;5087221;28;20086;-82
2022/05/30 01:26:20;;;;;;;7.35;3.50;;;;;;;-141.50;100.00;63355.56;5093634;28;20083;-81
2022/05/30 01:29:09;;;;;;;5.45;3.70;;;;;;;-141.50;100.00;63355.56;5072709;28;20472;-83
2022/05/30 01:31:35;;;;;;;4.90;3.28;;;;;;;-141.50;100.00;63355.56;5076849;28;20467;-82
2022/05/30 01:34:02;;;;;;;6.35;4.50;;;;;;;-141.50;100.00;63355.56;5096126;28;20125;-81
2022/05/30 01:36:31;;;;;;;8.30;4.57;;;;;;;-141.50;100.00;63355.56;5091146;28;20055;-83
2022/05/30 01:38:58;;;;;;;6.82;4.55;;;;;;;-141.50;100.00;63355.56;5091117;28;20471;-82
2022/05/30 01:41:25;;;;;;;8.88;4.82;;;;;;;-141.50;100.00;63355.56;5076762;28;20097;-82
2022/05/30 01:43:51;;;;;;;8.38;5.00;;;;;;;-141.50;100.00;63355.56;5076638;28;20535;-82
2022/05/30 01:46:21;;;;;;;8.52;4.80;;;;;;;-141.50;100.00;63355.56;5093754;28;20081;-81
2022/05/30 01:48:49;;;;;;;7.63;4.50;;;;;;;-141.50;100.00;63355.56;5079062;28;20052;-80
2022/05/30 01:51:18;;;;;;;7.65;5.18;;;;;;;-141.50;100.00;63355.56;5077010;28;20056;-83
2022/05/30 01:53:46;;;;;;;9.70;5.43;;;;;;;-141.50;100.00;63355.56;5075738;28;20060;-81
2022/05/30 01:56:14;;;;;;;8.13;4.88;;;;;;;-141.50;100.00;63355.56;5076413;28;20071;-82
2022/05/30 01:58:42;;;;;;;7.88;4.93;;;;;;;-141.50;100.00;63355.56;5093898;28;20048;-81
2022/05/30 02:01:19;;;;;;;9.27;4.93;;;;;;;-141.50;100.00;63355.56;5074339;28;20094;-82
2022/05/30 02:03:48;;;;;;;6.57;4.38;;;;;;;-141.50;100.00;63355.56;5109401;28;20054;-84
2022/05/30 02:06:14;;;;;;;7.70;4.60;;;;;;;-141.50;100.00;63355.56;5105128;28;20056;-85
2022/05/30 02:08:42;;;;;;;8.07;4.55;;;;;;;-141.50;100.00;63355.56;5081778;28;20052;-83
2022/05/30 02:11:10;;;;;;;7.95;4.68;;;;;;;-141.50;100.00;63355.56;5098555;28;20044;-84
2022/05/30 02:13:38;;;;;;;15.15;5.70;;;;;;;-141.50;100.00;63355.56;5097941;28;20109;-84
2022/05/30 02:18:55;;;;;;;8.35;5.38;;;;;;;-141.50;100.00;63355.56;5091734;28;20075;-82
2022/05/30 02:21:21;;;;;;;6.97;4.78;;;;;;;-141.50;100.00;63355.56;5092334;28;20119;-84
2022/05/30 02:23:48;;;;;;;8.95;5.25;;;;;;;-141.50;100.00;63355.56;5092415;28;20135;-82
2022/05/30 02:26:14;;;;;;;7.13;4.68;;;;;;;-141.50;100.00;63355.56;5092714;28;20056;-82
2022/05/30 02:28:42;;;;;;;7.30;4.53;;;;;;;-141.50;100.00;63355.56;5075571;28;20060;-84
2022/05/30 02:31:10;;;;;;;6.30;4.57;;;;;;;-141.50;100.00;63355.56;5075906;28;20095;-82
2022/05/30 02:36:40;;;;;;;8.38;5.05;;;;;;;-141.50;100.00;63355.56;5098832;28;20048;-83
2022/05/30 02:39:10;;;;;;;8.40;4.78;;;;;;;-141.50;100.00;63355.56;5100341;28;20048;-85
2022/05/30 02:41:37;;;;;;;6.40;4.40;;;;;;;-141.50;100.00;63355.56;5104292;28;20070;-84
2022/05/30 02:44:04;;;;;;;7.95;5.15;;;;;;;-141.50;100.00;63355.56;5084833;28;20165;-83
2022/05/30 02:46:31;;;;;;;8.43;5.68;;;;;;;-141.50;100.00;63355.56;5102747;28;20117;-84
2022/05/30 02:48:58;;;;;;;6.90;5.35;;;;;;;-141.50;100.00;63355.56;5080233;28;20079;-82
2022/05/30 02:51:28;;;;;;;8.65;5.28;;;;;;;-141.50;100.00;63355.56;5093756;28;20236;-83
2022/05/30 02:53:54;;;;;;;9.15;5.70;;;;;;;-141.50;100.00;63355.56;5100977;28;20058;-84
2022/05/30 02:56:22;;;;;;;8.75;5.70;;;;;;;-141.50;100.00;63355.56;5109446;28;20068;-81
2022/05/30 02:58:49;;;;;;;8.80;5.47;;;;;;;-141.50;100.00;63355.56;5099670;28;20036;-79
2022/05/30 03:01:16;;;;;;;12.50;6.28;;;;;;;-141.50;100.00;63355.56;5116336;28;20051;-83
2022/05/30 03:03:44;;;;;;;9.82;5.97;;;;;;;-141.50;100.00;63355.56;5098837;28;20052;-81
2022/05/30 03:06:11;;;;;;;11.55;6.50;;;;;;;-141.50;100.00;63355.56;5108502;28;20079;-82
2022/05/30 03:08:38;;;;;;;8.60;6.15;;;;;;;-141.50;100.00;63355.56;5102381;28;20044;-85
2022/05/30 03:11:04;;;;;;;10.40;5.15;;;;;;;-141.50;100.00;63355.56;5084357;28;20511;-83
2022/05/30 03:13:33;;;;;;;6.38;4.70;;;;;;;-141.50;100.00;63355.56;5084983;28;20063;-84
2022/05/30 03:16:00;;;;;;;11.60;5.40;;;;;;;-141.50;100.00;63355.56;5102190;28;20498;-84
2022/05/30 03:18:28;;;;;;;7.45;4.70;;;;;;;-141.50;100.00;63355.56;5102129;28;20060;-84
2022/05/30 03:20:55;;;;;;;6.30;4.22;;;;;;;-141.50;100.00;63355.56;5101508;28;20043;-82
2022/05/30 03:23:22;;;;;;;6.30;4.43;;;;;;;-141.50;100.00;63355.56;5078841;28;20052;-82
2022/05/30 03:25:49;;;;;;;5.80;4.15;;;;;;;-141.50;100.00;63355.56;5079944;28;20087;-83
2022/05/30 03:28:16;;;;;;;5.65;4.03;;;;;;;-141.50;100.00;63355.56;5076681;28;20079;-83
2022/05/30 03:30:44;;;;;;;6.80;4.22;;;;;;;-141.50;100.00;63355.56;5080120;28;20048;-81
2022/05/30 03:33:11;;;;;;;6.45;4.20;;;;;;;-141.50;100.00;63355.56;5101455;28;20055;-82
2022/05/30 03:35:38;;;;;;;5.25;4.03;;;;;;;-141.50;100.00;63355.56;5098632;28;20055;-83
2022/05/30 03:38:06;;;;;;;5.85;4.10;;;;;;;-141.50;100.00;63355.56;5125362;28;20059;-83
2022/05/30 03:40:36;;;;;;;6.80;3.97;;;;;;;-141.50;100.00;63355.56;5116176;28;20075;-82
2022/05/30 03:43:09;;;;;;;6.47;4.20;;;;;;;-141.50;100.00;63355.56;5097741;28;20658;-81
2022/05/30 03:45:38;;;;;;;5.53;3.30;;;;;;;-141.50;100.00;63355.56;5123636;28;20064;-81
2022/05/30 03:48:05;;;;;;;5.57;3.83;;;;;;;-141.50;100.00;63355.56;5095901;28;20052;-83
2022/05/30 03:50:32;;;;;;;5.70;3.75;;;;;;;-141.50;100.00;63355.56;5094390;28;20525;-83
2022/05/30 03:53:05;;;;;;;8.60;3.92;;;;;;;-141.50;100.00;63355.56;5111333;28;20109;-83
2022/05/30 03:55:35;;;;;;;5.40;3.60;;;;;;;-141.50;100.00;63355.56;5113087;28;20124;-82
2022/05/30 03:58:04;;;;;;;7.75;4.07;;;;;;;-141.50;100.00;63355.56;5095940;28;20092;-82
2022/05/30 04:00:31;;;;;;;6.72;3.85;;;;;;;-141.50;100.00;63355.56;5120585;28;20051;-82
2022/05/30 04:02:59;;;;;;;5.10;3.33;;;;;;;-141.50;100.00;63355.56;5094544;28;20056;-84
2022/05/30 04:05:26;;;;;;;6.13;3.42;;;;;;;-141.50;100.00;63355.56;5076149;28;20054;-84
2022/05/30 04:07:57;;;;;;;7.07;3.78;;;;;;;-141.50;100.00;63355.56;5073540;28;20078;-84
2022/05/30 04:10:25;;;;;;;7.10;3.60;;;;;;;-141.50;100.00;63355.56;5075436;28;20052;-83
2022/05/30 04:13:08;;;;;;;5.75;3.80;;;;;;;-141.50;100.00;63355.56;5074469;28;20055;-84
2022/05/30 04:15:35;;;;;;;8.40;4.13;;;;;;;-141.50;100.00;63355.56;5084519;28;20901;-83
2022/05/30 04:18:02;;;;;;;7.18;4.25;;;;;;;-141.50;100.00;63355.56;5090422;28;20075;-81
2022/05/30 04:20:29;;;;;;;6.65;4.10;;;;;;;-141.50;100.00;63355.56;5093766;28;20135;-82
2022/05/30 04:22:56;;;;;;;6.72;4.60;;;;;;;-141.50;100.00;63355.56;5090121;28;20044;-81
2022/05/30 04:25:23;;;;;;;8.35;4.10;;;;;;;-141.50;100.00;63355.56;5086475;28;20036;-84
2022/05/30 04:27:49;;;;;;;7.25;4.60;;;;;;;-141.50;100.00;63355.56;5083720;28;20048;-83
2022/05/30 04:30:16;;;;;;;7.82;4.30;;;;;;;-141.50;100.00;63355.56;5083297;28;20048;-85
2022/05/30 04:32:47;;;;;;;7.72;3.92;;;;;;;-141.50;100.00;63355.56;5076706;28;20076;-84
2022/05/30 04:35:14;;;;;;;9.52;3.78;;;;;;;-141.50;100.00;63355.56;5074686;28;20057;-84
2022/05/30 04:37:45;;;;;;;6.53;3.95;;;;;;;-141.50;100.00;63355.56;5080745;28;20127;-83
2022/05/30 04:40:17;;;;;;;8.10;4.00;;;;;;;-141.50;100.00;63355.56;5072867;28;20060;-82
2022/05/30 04:42:47;;;;;;;7.95;3.50;;;;;;;-141.50;100.00;63355.56;5071357;28;20106;-84
2022/05/30 04:45:14;;;;;;;6.03;3.55;;;;;;;-141.50;100.00;63355.56;5069354;28;20108;-84
2022/05/30 04:47:46;;;;;;;4.93;3.08;;;;;;;-141.50;100.00;63355.56;5071707;28;20058;-83
2022/05/30 04:50:16;;;;;;;6.03;2.83;;;;;;;-141.50;100.00;63355.56;5085784;28;20118;-83
2022/05/30 04:52:44;;;;;;;4.55;3.20;;;;;;;-141.50;100.00;63355.56;5078752;28;20418;-82
2022/05/30 04:55:12;;;;;;;7.03;3.47;;;;;;;-141.50;100.00;63355.56;5075565;28;20048;-84
2022/05/30 04:57:44;;;;;;;5.72;2.95;;;;;;;-141.50;100.00;63355.56;5074177;28;20086;-84
2022/05/30 05:00:13;;;;;;;4.93;2.83;;;;;;;-141.50;100.00;63355.56;5076058;28;20055;-82
2022/05/30 05:02:46;;;;;;;4.97;2.85;;;;;;;-141.50;100.00;63355.56;5073569;28;20048;-83
2022/05/30 05:05:16;;;;;;;7.35;3.05;;;;;;;-141.50;100.00;63355.56;5095532;28;20052;-83
2022/05/30 05:07:48;;;;;;;5.63;3.00;;;;;;;-141.50;100.00;63355.56;5094043;28;20044;-84
2022/05/30 05:10:58;;;;;;;4.85;2.70;;;;;;;-141.50;100.00;63355.56;5094430;28;20060;-84
2022/05/30 05:13:27;;;;;;;4.60;2.90;;;;;;;-141.50;100.00;63355.56;5108299;28;20105;-81
2022/05/30 05:15:57;;;;;;;5.35;3.22;;;;;;;-141.50;100.00;63355.56;5114873;28;20103;-81
2022/05/30 05:18:26;;;;;;;7.38;3.30;;;;;;;-141.50;100.00;63355.56;5115303;28;20036;-81
2022/05/30 05:20:52;;;;;;;6.38;3.03;;;;;;;-141.50;100.00;63355.56;5086482;28;20044;-86
2022/05/30 05:23:22;;;;;;;6.72;3.70;;;;;;;-141.50;100.00;63355.56;5093322;28;20051;-86
2022/05/30 05:25:48;;;;;;;6.97;3.60;;;;;;;-141.50;100.00;63355.56;5079791;28;20439;-84
2022/05/30 05:28:15;;;;;;;6.70;3.63;;;;;;;-141.50;100.00;63355.56;5092660;28;20047;-83
2022/05/30 05:30:42;;;;;;;5.43;3.65;;;;;;;-141.50;100.00;63355.56;5092566;28;20147;-83
2022/05/30 05:33:11;;;;;;;8.30;4.18;;;;;;;-141.50;100.00;63355.56;5089938;28;20055;-82
2022/05/30 05:35:42;;;;;;;7.10;4.15;;;;;;;-141.50;100.00;63355.56;5069715;28;20189;-83
2022/05/30 05:38:08;;;;;;;8.50;3.72;;;;;;;-141.50;100.00;63355.56;5048800;28;20510;-84
2022/05/30 05:40:44;;;;;;;7.65;3.80;;;;;;;-141.50;100.00;63355.56;5076317;28;20084;-83
2022/05/30 05:43:11;;;;;;;6.07;3.70;;;;;;;-141.50;100.00;63355.56;5050632;28;20052;-83
2022/05/30 05:45:41;;;;;;;8.23;3.85;;;;;;;-141.50;100.00;63355.56;5065863;28;20057;-85
2022/05/30 05:48:10;;;;;;;6.63;3.97;;;;;;;-141.50;100.00;63355.56;5048248;28;20060;-83
2022/05/30 05:50:38;;;;;;;8.88;5.03;;;;;;;-141.50;100.00;63355.56;5088503;28;20096;-81
2022/05/30 05:53:09;;;;;;;9.25;5.10;;;;;;;-141.50;100.00;63355.56;5091835;28;20064;-83
2022/05/30 05:55:39;;;;;;;9.18;4.72;;;;;;;-141.50;100.00;63355.56;5091825;28;20036;-81
2022/05/30 05:58:06;;;;;;;12.63;4.53;;;;;;;-141.50;100.00;63355.56;5080501;28;20066;-85
2022/05/30 06:00:35;;;;;;;12.02;5.35;;;;;;;-141.50;100.00;63355.56;5057739;28;20080;-85
2022/05/30 06:03:05;;;;;;;7.18;4.90;;;;;;;-141.50;100.00;63355.56;5085406;28;20097;-84
2022/05/30 06:05:31;;;;;;;13.90;5.57;;;;;;;-141.50;100.00;63355.56;5090615;28;20133;-84
2022/05/30 06:08:03;;;;;;;12.07;7.40;;;;;;;-141.50;100.00;63355.56;5091587;28;20060;-82
2022/05/30 06:10:33;;;;;;;12.40;7.82;;;;;;;-141.50;100.00;63355.56;5088667;28;20516;-86
2022/05/30 06:12:59;;;;;;;12.25;6.75;;;;;;;-141.50;100.00;63355.56;5102327;28;20048;-85
2022/05/30 06:15:28;;;;;;;11.63;6.57;;;;;;;-141.50;100.00;63355.56;5094284;28;20069;-84
2022/05/30 06:17:54;;;;;;;12.05;6.53;;;;;;;-141.50;100.00;63355.56;5077107;28;20044;-86
2022/05/30 06:20:21;;;;;;;12.38;6.28;;;;;;;-141.50;100.00;63355.56;5093636;28;20636;-83
2022/05/30 06:22:47;;;;;;;11.35;6.40;;;;;;;-141.50;100.00;63355.56;5094480;28;20066;-86
2022/05/30 06:25:17;;;;;;;12.45;8.55;;;;;;;-141.50;100.00;63355.56;5076102;28;20060;-87
2022/05/30 06:27:43;;;;;;;9.95;7.18;;;;;;;-141.50;100.00;63355.56;5075906;28;20163;-85
2022/05/30 06:30:10;;;;;;;10.70;6.93;;;;;;;-141.50;100.00;63355.56;5093876;28;20136;-83
2022/05/30 06:32:37;;;;;;;10.82;6.07;;;;;;;-141.50;100.00;63355.56;5093140;28;20241;-83
2022/05/30 06:35:05;;;;;;;11.43;7.40;;;;;;;-141.50;100.00;63355.56;5076088;28;20059;-85
2022/05/30 06:37:32;;;;;;;8.88;6.03;;;;;;;-141.50;100.00;63355.56;5095495;28;20501;-86
2022/05/30 06:39:58;;;;;;;9.82;5.82;;;;;;;-141.50;100.00;63355.56;5076236;28;20055;-85
2022/05/30 06:42:26;;;;;;;7.80;5.53;;;;;;;-141.50;100.00;63355.56;5092521;28;20079;-80
2022/05/30 06:44:52;;;;;;;11.45;5.80;;;;;;;-141.50;100.00;63355.56;5092294;28;20109;-86
2022/05/30 06:47:19;;;;;;;8.95;5.72;;;;;;;-141.50;100.00;63355.56;5099006;28;20339;-86
2022/05/30 06:49:46;;;;;;;8.55;5.18;;;;;;;-141.50;100.00;63355.56;5076487;28;20060;-86
2022/05/30 06:52:12;;;;;;;8.63;5.07;;;;;;;-141.50;100.00;63355.56;5076424;28;20127;-85
2022/05/30 06:54:39;;;;;;;10.15;5.30;;;;;;;-141.50;100.00;63355.56;5094348;28;20058;-86
2022/05/30 06:59:51;;;;;;;8.27;5.40;;;;;;;-141.50;100.00;63355.56;5093743;28;20372;-85
2022/05/30 07:02:18;;;;;;;8.77;5.60;;;;;;;-141.50;100.00;63355.56;5074216;28;20044;-85
2022/05/30 07:04:44;;;;;;;7.53;5.65;;;;;;;-141.50;100.00;63355.56;5093400;28;20609;-83
2022/05/30 07:07:11;;;;;;;8.25;5.95;;;;;;;-141.50;100.00;63355.56;5097848;28;20083;-84
2022/05/30 07:09:38;;;;;;;11.65;6.05;;;;;;;-141.50;100.00;63355.56;5075978;28;20048;-83
2022/05/30 07:12:06;;;;;;;12.05;6.10;;;;;;;-141.50;100.00;63355.56;5093675;28;20106;-85
2022/05/30 07:14:32;;;;;;;9.20;6.43;;;;;;;-141.50;100.00;63355.56;5093300;28;20109;-83
2022/05/30 07:16:59;;;;;;;9.57;7.13;;;;;;;-141.50;100.00;63355.56;5093754;28;20136;-81
2022/05/30 07:19:25;;;;;;;11.57;7.00;;;;;;;-141.50;100.00;63355.56;5093601;28;20052;-82
2022/05/30 07:21:52;;;;;;;9.98;6.68;;;;;;;-141.50;100.00;63355.56;5074514;28;20159;-82
2022/05/30 07:24:18;;;;;;;13.63;7.13;;;;;;;-141.50;100.00;63355.56;5074186;28;20092;-82
2022/05/30 07:26:45;;;;;;;11.43;6.68;;;;;;;-141.50;100.00;63355.56;5095275;28;20090;-83
2022/05/30 07:29:11;;;;;;;8.65;6.32;;;;;;;-141.50;100.00;63355.56;5093777;28;20055;-84
2022/05/30 07:31:38;;;;;;;9.38;5.78;;;;;;;-141.50;100.00;63355.56;5093524;28;20571;-83
2022/05/30 07:34:05;;;;;;;19.15;5.88;;;;;;;-141.50;100.00;63355.56;5075777;28;20052;-86
2022/05/30 07:36:32;;;;;;;7.90;5.47;;;;;;;-141.50;100.00;63355.56;5075594;28;20079;-85
2022/05/30 07:38:59;;;;;;;8.40;5.53;;;;;;;-141.50;100.00;63355.56;5091417;28;20060;-83
2022/05/30 07:41:28;;;;;;;6.07;4.78;;;;;;;-141.50;100.00;63355.56;5073472;28;20134;-84
2022/05/30 07:43:55;;;;;;;7.18;4.18;;;;;;;-141.50;100.00;63355.56;5091588;28;20169;-85
2022/05/30 07:46:22;;;;;;;6.68;4.10;;;;;;;-141.50;100.00;63355.56;5091903;28;20052;-86
2022/05/30 07:48:49;;;;;;;8.88;4.40;;;;;;;-141.50;100.00;63355.56;5092594;28;20052;-88
2022/05/30 07:51:16;;;;;;;6.20;4.13;;;;;;;-141.50;100.00;63355.56;5075739;28;20048;-83
2022/05/30 07:53:44;;;;;;;6.45;3.83;;;;;;;-141.50;100.00;63355.56;5074420;28;20110;-87
2022/05/30 07:56:15;;;;;;;6.80;4.35;;;;;;;-141.50;100.00;63355.56;5082162;28;20137;-83
2022/05/30 07:58:42;;;;;;;7.10;4.82;;;;;;;-141.50;100.00;63355.56;5082721;28;20055;-85
2022/05/30 08:01:16;;;;;;;8.75;4.82;;;;;;;-141.50;100.00;63355.56;5096798;28;20487;-85
2022/05/30 08:03:44;;;;;;;5.90;4.18;;;;;;;-141.50;100.00;63355.56;5096428;28;20391;-85
2022/05/30 08:06:15;;;;;;;5.15;4.00;;;;;;;-141.50;100.00;63355.56;5099326;28;20044;-82
2022/05/30 08:08:43;;;;;;;8.23;4.60;;;;;;;-141.50;100.00;63355.56;5081369;28;20052;-85
2022/05/30 08:11:11;;;;;;;9.43;5.38;;;;;;;-141.50;100.00;63355.56;5095245;28;20576;-83
2022/05/30 08:13:38;;;;;;;8.07;4.60;;;;;;;-141.50;100.00;63355.56;5098290;28;20047;-86
2022/05/30 08:16:14;;;;;;;6.18;4.15;;;;;;;-141.50;100.00;63355.56;5111637;28;20047;-83
2022/05/30 08:19:01;;;;;;;9.63;4.57;;;;;;;-141.50;100.00;63355.56;5099855;28;20031;-81
2022/05/30 08:21:32;;;;;;;5.70;3.35;;;;;;;-141.50;100.00;63355.56;5099021;28;20229;-78
2022/05/30 08:23:59;;;;;;;5.72;3.50;;;;;;;-141.50;100.00;63355.56;5092141;28;20057;-86
2022/05/30 08:26:26;;;;;;;6.72;3.38;;;;;;;-141.50;100.00;63355.56;5110917;28;20095;-83
2022/05/30 08:28:52;;;;;;;5.38;3.45;;;;;;;-141.50;100.00;63355.56;5088575;28;20048;-81
2022/05/30 08:31:19;;;;;;;7.93;3.28;;;;;;;-141.50;100.00;63355.56;5106640;28;20062;-82
2022/05/30 08:33:46;;;;;;;6.53;3.78;;;;;;;-141.50;100.00;63355.56;5102842;28;20051;-82
2022/05/30 08:36:13;;;;;;;5.10;3.38;;;;;;;-141.50;100.00;63355.56;5105419;28;20048;-82
2022/05/30 08:38:42;;;;;;;6.20;3.42;;;;;;;-141.50;100.00;63355.56;5101174;28;20048;-84
2022/05/30 08:44:01;;;;;;;7.13;4.28;;;;;;;-141.50;100.00;63355.56;5095814;28;20135;-82
2022/05/30 08:46:49;;;;;;;7.57;3.92;;;;;;;-141.50;100.00;63355.56;5082237;28;20196;-84
2022/05/30 08:49:26;;;;;;;9.95;4.68;;;;;;;-141.50;100.00;63355.56;5099369;28;20048;-84
2022/05/30 08:52:25;;;;;;;9.85;4.55;;;;;;;-141.50;100.00;63355.56;5101110;28;20105;-81
2022/05/30 08:55:28;;;;;;;7.03;4.07;;;;;;;-141.50;100.00;63355.56;5099126;28;20213;-81
2022/05/30 08:58:26;;;;;;;7.35;4.00;;;;;;;-141.50;100.00;63355.56;5098769;28;20063;-82
2022/05/30 09:01:00;;;;;;;4.72;3.35;;;;;;;-141.50;100.00;63355.56;5080187;28;20067;-82
2022/05/30 09:03:41;;;;;;;5.78;3.42;;;;;;;-141.50;100.00;63355.56;5079997;28;20047;-83
2022/05/30 09:06:25;;;;;;;4.97;3.30;;;;;;;-141.50;100.00;63355.56;5099156;28;20055;-83
2022/05/30 09:08:56;;;;;;;5.00;2.75;;;;;;;-141.50;100.00;63355.56;5098980;28;20060;-82
2022/05/30 09:11:35;;;;;;;6.25;2.83;;;;;;;-141.50;100.00;63355.56;5097075;28;20048;-83
2022/05/30 09:14:14;;;;;;;7.72;3.30;;;;;;;-141.50;100.00;63355.56;5076340;28;20079;-78
2022/05/30 09:16:50;;;;;;;5.07;3.03;;;;;;;-141.50;100.00;63355.56;5096316;28;20048;-84
2022/05/30 09:19:21;;;;;;;7.13;4.00;;;;;;;-141.50;100.00;63355.56;5100180;28;20067;-83
2022/05/30 09:21:49;;;;;;;10.00;3.67;;;;;;;-141.50;100.00;63355.56;5102267;28;20055;-83
2022/05/30 09:24:16;;;;;;;5.30;3.90;;;;;;;-141.50;100.00;63355.56;5090386;28;20052;-82
2022/05/30 09:26:43;;;;;;;10.77;4.97;;;;;;;-141.50;100.00;63355.56;5090680;28;20052;-80
2022/05/30 09:29:18;;;;;;;6.22;4.55;;;;;;;-141.50;100.00;63355.56;5099539;28;20498;-80
2022/05/30 09:32:01;;;;;;;7.30;5.13;;;;;;;-141.50;100.00;63355.56;5075486;28;20067;-83
2022/05/30 09:34:37;;;;;;;8.52;6.68;;;;;;;-141.50;100.00;63355.56;5072284;28;20548;-84
2022/05/30 09:37:05;;;;;;;10.40;6.90;;;;;;;-141.50;100.00;63355.56;5090428;28;20052;-83
2022/05/30 09:39:46;;;;;;;8.02;6.88;;;;;;;-141.50;100.00;63355.56;5091104;28;20074;-82
2022/05/30 09:42:29;;;;;;;15.48;6.43;;;;;;;-141.50;100.00;63355.56;5092601;28;20060;-82
2022/05/30 09:45:06;;;;;;;8.65;5.18;;;;;;;-141.50;100.00;63355.56;5101285;28;20040;-78
2022/05/30 09:47:34;;;;;;;9.27;6.20;;;;;;;-141.50;100.00;63355.56;5113599;28;20036;-78
2022/05/30 09:50:14;;;;;;;12.40;6.13;;;;;;;-141.50;100.00;63355.56;5096044;28;20044;-79
2022/05/30 09:52:41;;;;;;;9.52;5.63;;;;;;;-141.50;100.00;63355.56;5090391;28;20060;-81
2022/05/30 09:55:40;;;;;;;8.25;5.00;;;;;;;-141.50;100.00;63355.56;5101086;28;20067;-82
2022/05/30 09:58:07;;;;;;;6.18;3.38;;;;;;;-141.50;100.00;63355.56;5075898;28;20391;-83
2022/05/30 10:01:09;;;;;;;8.82;4.25;;;;;;;-141.50;100.00;63355.56;5097397;28;20087;-80
2022/05/30 10:03:41;;;;;;;5.55;3.47;;;;;;;-141.50;100.00;63355.56;5091373;28;20051;-83
2022/05/30 10:06:20;;;;;;;5.95;3.30;;;;;;;-141.50;100.00;63355.56;5076143;28;20374;-84
2022/05/30 10:08:48;;;;;;;5.50;2.95;;;;;;;-141.50;100.00;63355.56;5077563;28;20483;-83
2022/05/30 10:11:35;;;;;;;5.65;3.60;;;;;;;-141.50;100.00;63355.56;5092756;28;20391;-84
2022/05/30 10:14:27;;;;;;;4.93;2.70;;;;;;;-141.50;100.00;63355.56;5091489;28;20041;-79
2022/05/30 10:17:00;;;;;;;3.33;2.08;;;;;;;-141.50;100.00;63355.56;5073132;28;20303;-85
2022/05/30 10:19:31;;;;;;;2.85;1.80;;;;;;;-141.50;100.00;63355.56;5054788;28;20084;-84
2022/05/30 10:28:21;;;;;;;2.95;1.58;;;;;;;-141.50;100.00;63355.56;5071085;28;20059;-81
2022/05/30 10:31:12;;;;;;;2.97;1.35;;;;;;;-141.50;100.00;63355.56;5073362;28;20088;-79
2022/05/30 10:34:18;;;;;;;8.32;1.00;;;;;;;-141.50;100.00;63355.56;5068827;28;20069;-81
2022/05/30 10:37:09;;;;;;;3.88;1.10;;;;;;;-141.50;100.00;63355.56;5067370;28;20059;-77
2022/05/30 10:39:45;;;;;;;1.17;0.80;;;;;;;-141.50;100.00;63355.56;5069187;28;20102;-81
2022/05/30 10:42:18;;;;;;;;;;;;;;;-141.50;100.00;63355.56;5073113;28;20048;-79
2022/05/30 10:44:54;;;;;;;1.45;0.77;;;;;;;-141.50;100.00;63355.56;5098207;28;19931;-82
2022/05/30 10:47:38;;;;;;;3.17;0.80;;;;;;;-141.50;100.00;63355.56;5074398;28;20674;-81
2022/05/30 10:50:16;;;;;;;1.35;0.90;;;;;;;-141.50;100.00;63355.56;5092228;28;20052;-82
2022/05/30 10:52:53;;;;;;;2.50;0.77;;;;;;;-141.50;100.00;63355.56;5092221;28;20051;-81
2022/05/30 10:55:24;;;;;;;1.20;0.60;;;;;;;-141.50;100.00;63355.56;5105107;28;20146;-82
2022/05/30 10:58:01;;;;;;;2.08;0.80;;;;;;;-141.50;100.00;63355.56;5105014;28;20528;-81
2022/05/30 11:00:33;;;;;;;1.10;0.70;;;;;;;-141.50;100.00;63355.56;5087908;28;20291;-85
2022/05/30 11:03:21;;;;;;;2.00;0.90;;;;;;;-141.50;100.00;63355.56;5104035;28;20040;-85
2022/05/30 11:06:13;;;;;;;4.15;0.85;;;;;;;-141.50;100.00;63355.56;5102373;28;20051;-85
2022/05/30 11:09:04;;;;;;;1.92;0.85;;;;;;;-141.50;100.00;63355.56;5104371;28;20051;-82
2022/05/30 11:12:01;;;;;;;2.65;0.90;;;;;;;-141.50;100.00;63355.56;5104543;28;20070;-83
2022/05/30 11:14:42;;;;;;;3.30;1.10;;;;;;;-141.50;100.00;63355.56;5083398;28;20044;-83
2022/05/30 11:17:33;;;;;;;2.35;0.90;;;;;;;-141.50;100.00;63355.56;5087683;28;20052;-81
2022/05/30 11:20:15;;;;;;;1.55;0.93;;;;;;;-141.50;100.00;63355.56;5083169;28;20043;-82
2022/05/30 11:22:44;;;;;;;1.52;0.80;;;;;;;-141.50;100.00;63355.56;5097985;28;20082;-81
2022/05/30 11:25:14;;;;;;;1.40;0.65;;;;;;;-141.50;100.00;63355.56;5098667;28;20060;-82
2022/05/30 11:27:49;;;;;;;1.33;0.70;;;;;;;-141.50;100.00;63355.56;5095089;28;20091;-85
2022/05/30 11:30:31;;;;;;;2.30;0.80;;;;;;;-141.50;100.00;63355.56;5079473;28;20628;-83
2022/05/30 11:33:16;;;;;;;3.35;0.93;;;;;;;-141.50;100.00;63355.56;5100295;28;20071;-80
2022/05/30 11:36:03;;;;;;;1.40;0.60;;;;;;;-141.50;100.00;63355.56;5086271;28;20044;-81
2022/05/30 11:38:44;;;;;;;1.20;0.73;;;;;;;-141.50;100.00;63355.56;5109405;28;20098;-79
2022/05/30 11:41:33;;;;;;;1.77;0.70;;;;;;;-141.50;100.00;63355.56;5086724;28;20044;-83
2022/05/30 11:44:29;;;;;;;2.35;0.70;;;;;;;-141.50;100.00;63355.56;5101581;28;20048;-85
2022/05/30 11:47:14;;;;;;;1.80;0.85;;;;;;;-141.50;100.00;63355.56;5067483;28;20083;-86
2022/05/30 11:49:53;;;;;;;12.13;3.72;;;;;;;-141.50;100.00;63355.56;5077275;28;20064;-82